sensor_id;sensor_type;location;lat;lon;timestamp;P1;durP1;ratioP1;P2;durP2;ratioP2
61112;SDS011;47184;57.998;56.184;2023-05-27T00:00:17;22.58;;;7.88;;
61112;SDS011;47184;57.998;56.184;2023-05-27T00:02:44;16.98;;;8.18;;
61112;SDS011;47184;57.998;56.184;2023-05-27T00:05:10;15.77;;;7.75;;
61112;SDS011;47184;57.998;56.184;2023-05-27T00:07:36;12.77;;;7.65;;
61112;SDS011;47184;57.998;56.184;2023-05-27T00:10:03;15.95;;;7.55;;
61112;SDS011;47184;57.998;56.184;2023-05-27T00:12:31;18.65;;;7.40;;
61112;SDS011;47184;57.998;56.184;2023-05-27T00:14:57;14.43;;;7.70;;
61112;SDS011;47184;57.998;56.184;2023-05-27T00:17:23;14.20;;;8.15;;
61112;SDS011;47184;57.998;56.184;2023-05-27T00:19:51;12.77;;;7.20;;
61112;SDS011;47184;57.998;56.184;2023-05-27T00:22:17;14.63;;;7.88;;
61112;SDS011;47184;57.998;56.184;2023-05-27T00:24:43;18.65;;;8.48;;
61112;SDS011;47184;57.998;56.184;2023-05-27T00:27:09;16.27;;;8.35;;
61112;SDS011;47184;57.998;56.184;2023-05-27T00:29:38;14.30;;;6.65;;
61112;SDS011;47184;57.998;56.184;2023-05-27T00:32:04;16.02;;;6.82;;
61112;SDS011;47184;57.998;56.184;2023-05-27T00:34:32;12.70;;;7.65;;
61112;SDS011;47184;57.998;56.184;2023-05-27T00:37:01;27.17;;;8.27;;
61112;SDS011;47184;57.998;56.184;2023-05-27T00:39:28;12.05;;;7.13;;
61112;SDS011;47184;57.998;56.184;2023-05-27T00:41:54;23.17;;;8.65;;
61112;SDS011;47184;57.998;56.184;2023-05-27T00:44:20;15.77;;;7.57;;
61112;SDS011;47184;57.998;56.184;2023-05-27T00:46:47;25.50;;;8.27;;
61112;SDS011;47184;57.998;56.184;2023-05-27T00:49:16;20.70;;;7.80;;
61112;SDS011;47184;57.998;56.184;2023-05-27T00:51:43;18.00;;;8.25;;
61112;SDS011;47184;57.998;56.184;2023-05-27T00:54:10;16.63;;;6.70;;
61112;SDS011;47184;57.998;56.184;2023-05-27T00:56:38;15.50;;;8.20;;
61112;SDS011;47184;57.998;56.184;2023-05-27T00:59:04;14.20;;;7.93;;
61112;SDS011;47184;57.998;56.184;2023-05-27T01:01:30;16.42;;;8.65;;
61112;SDS011;47184;57.998;56.184;2023-05-27T01:03:59;21.65;;;7.65;;
61112;SDS011;47184;57.998;56.184;2023-05-27T01:11:43;20.77;;;7.80;;
61112;SDS011;47184;57.998;56.184;2023-05-27T01:14:16;23.70;;;7.45;;
61112;SDS011;47184;57.998;56.184;2023-05-27T01:16:44;24.45;;;8.40;;
61112;SDS011;47184;57.998;56.184;2023-05-27T01:19:13;19.15;;;7.97;;
61112;SDS011;47184;57.998;56.184;2023-05-27T01:21:45;19.50;;;7.43;;
61112;SDS011;47184;57.998;56.184;2023-05-27T01:24:16;15.93;;;7.97;;
61112;SDS011;47184;57.998;56.184;2023-05-27T01:26:47;14.90;;;8.27;;
61112;SDS011;47184;57.998;56.184;2023-05-27T01:29:13;13.40;;;7.57;;
61112;SDS011;47184;57.998;56.184;2023-05-27T01:31:47;23.25;;;8.88;;
61112;SDS011;47184;57.998;56.184;2023-05-27T01:34:30;18.50;;;9.20;;
61112;SDS011;47184;57.998;56.184;2023-05-27T01:37:04;28.17;;;9.10;;
61112;SDS011;47184;57.998;56.184;2023-05-27T01:39:35;16.33;;;8.18;;
61112;SDS011;47184;57.998;56.184;2023-05-27T01:42:06;17.02;;;8.20;;
61112;SDS011;47184;57.998;56.184;2023-05-27T01:44:33;19.17;;;7.55;;
61112;SDS011;47184;57.998;56.184;2023-05-27T01:47:01;21.88;;;7.95;;
61112;SDS011;47184;57.998;56.184;2023-05-27T01:49:28;15.25;;;8.63;;
61112;SDS011;47184;57.998;56.184;2023-05-27T01:51:55;21.38;;;8.20;;
61112;SDS011;47184;57.998;56.184;2023-05-27T01:54:22;13.93;;;8.10;;
61112;SDS011;47184;57.998;56.184;2023-05-27T01:56:48;16.50;;;8.57;;
61112;SDS011;47184;57.998;56.184;2023-05-27T01:59:14;15.45;;;8.60;;
61112;SDS011;47184;57.998;56.184;2023-05-27T02:01:41;19.75;;;9.07;;
61112;SDS011;47184;57.998;56.184;2023-05-27T02:04:08;22.95;;;8.43;;
61112;SDS011;47184;57.998;56.184;2023-05-27T02:06:35;19.48;;;8.95;;
61112;SDS011;47184;57.998;56.184;2023-05-27T02:09:02;21.83;;;8.82;;
61112;SDS011;47184;57.998;56.184;2023-05-27T02:11:29;21.63;;;8.20;;
61112;SDS011;47184;57.998;56.184;2023-05-27T02:13:55;24.33;;;8.38;;
61112;SDS011;47184;57.998;56.184;2023-05-27T02:16:23;16.33;;;8.57;;
61112;SDS011;47184;57.998;56.184;2023-05-27T02:18:49;20.38;;;8.70;;
61112;SDS011;47184;57.998;56.184;2023-05-27T02:21:16;16.25;;;8.13;;
61112;SDS011;47184;57.998;56.184;2023-05-27T02:23:44;17.40;;;8.48;;
61112;SDS011;47184;57.998;56.184;2023-05-27T02:26:10;25.65;;;8.20;;
61112;SDS011;47184;57.998;56.184;2023-05-27T02:28:37;16.42;;;8.43;;
61112;SDS011;47184;57.998;56.184;2023-05-27T02:31:03;16.95;;;8.60;;
61112;SDS011;47184;57.998;56.184;2023-05-27T02:33:29;17.17;;;8.63;;
61112;SDS011;47184;57.998;56.184;2023-05-27T02:35:56;29.52;;;8.70;;
61112;SDS011;47184;57.998;56.184;2023-05-27T02:38:22;28.20;;;9.68;;
61112;SDS011;47184;57.998;56.184;2023-05-27T02:40:48;31.30;;;9.55;;
61112;SDS011;47184;57.998;56.184;2023-05-27T02:43:15;34.78;;;9.23;;
61112;SDS011;47184;57.998;56.184;2023-05-27T02:45:41;24.48;;;8.95;;
61112;SDS011;47184;57.998;56.184;2023-05-27T02:48:08;18.65;;;8.40;;
61112;SDS011;47184;57.998;56.184;2023-05-27T02:50:34;27.17;;;9.57;;
61112;SDS011;47184;57.998;56.184;2023-05-27T02:53:00;24.23;;;9.18;;
61112;SDS011;47184;57.998;56.184;2023-05-27T02:55:26;21.13;;;9.05;;
61112;SDS011;47184;57.998;56.184;2023-05-27T02:57:53;23.00;;;9.43;;
61112;SDS011;47184;57.998;56.184;2023-05-27T03:00:19;21.13;;;9.13;;
61112;SDS011;47184;57.998;56.184;2023-05-27T03:02:47;18.08;;;9.02;;
61112;SDS011;47184;57.998;56.184;2023-05-27T03:05:13;16.23;;;9.10;;
61112;SDS011;47184;57.998;56.184;2023-05-27T03:07:41;31.02;;;10.07;;
61112;SDS011;47184;57.998;56.184;2023-05-27T03:10:07;24.92;;;9.38;;
61112;SDS011;47184;57.998;56.184;2023-05-27T03:12:33;27.30;;;9.50;;
61112;SDS011;47184;57.998;56.184;2023-05-27T03:15:00;25.80;;;9.27;;
61112;SDS011;47184;57.998;56.184;2023-05-27T03:17:30;24.00;;;9.35;;
61112;SDS011;47184;57.998;56.184;2023-05-27T03:19:56;30.02;;;9.30;;
61112;SDS011;47184;57.998;56.184;2023-05-27T03:22:23;30.35;;;9.23;;
61112;SDS011;47184;57.998;56.184;2023-05-27T03:24:49;19.15;;;9.60;;
61112;SDS011;47184;57.998;56.184;2023-05-27T03:27:17;27.90;;;10.77;;
61112;SDS011;47184;57.998;56.184;2023-05-27T03:29:44;21.73;;;10.20;;
61112;SDS011;47184;57.998;56.184;2023-05-27T03:32:12;26.15;;;10.77;;
61112;SDS011;47184;57.998;56.184;2023-05-27T03:34:39;30.52;;;10.48;;
61112;SDS011;47184;57.998;56.184;2023-05-27T03:37:05;21.63;;;9.88;;
61112;SDS011;47184;57.998;56.184;2023-05-27T03:39:50;37.38;;;9.90;;
61112;SDS011;47184;57.998;56.184;2023-05-27T03:42:18;25.02;;;10.30;;
61112;SDS011;47184;57.998;56.184;2023-05-27T03:44:44;41.33;;;11.82;;
61112;SDS011;47184;57.998;56.184;2023-05-27T03:47:11;23.98;;;10.00;;
61112;SDS011;47184;57.998;56.184;2023-05-27T03:49:37;33.53;;;10.52;;
61112;SDS011;47184;57.998;56.184;2023-05-27T03:52:03;30.00;;;11.38;;
61112;SDS011;47184;57.998;56.184;2023-05-27T03:54:29;32.97;;;10.68;;
61112;SDS011;47184;57.998;56.184;2023-05-27T03:56:55;31.10;;;11.70;;
61112;SDS011;47184;57.998;56.184;2023-05-27T04:02:14;30.77;;;12.23;;
61112;SDS011;47184;57.998;56.184;2023-05-27T04:04:41;36.50;;;12.27;;
61112;SDS011;47184;57.998;56.184;2023-05-27T04:07:07;35.08;;;12.13;;
61112;SDS011;47184;57.998;56.184;2023-05-27T04:09:33;34.83;;;11.55;;
61112;SDS011;47184;57.998;56.184;2023-05-27T04:11:59;41.50;;;12.40;;
61112;SDS011;47184;57.998;56.184;2023-05-27T04:14:25;45.30;;;12.90;;
61112;SDS011;47184;57.998;56.184;2023-05-27T04:16:52;55.13;;;13.25;;
61112;SDS011;47184;57.998;56.184;2023-05-27T04:19:18;43.88;;;12.07;;
61112;SDS011;47184;57.998;56.184;2023-05-27T04:21:47;53.05;;;13.32;;
61112;SDS011;47184;57.998;56.184;2023-05-27T04:24:14;54.60;;;12.88;;
61112;SDS011;47184;57.998;56.184;2023-05-27T04:26:42;46.47;;;13.98;;
61112;SDS011;47184;57.998;56.184;2023-05-27T04:29:08;46.05;;;14.18;;
61112;SDS011;47184;57.998;56.184;2023-05-27T04:31:38;60.50;;;12.95;;
61112;SDS011;47184;57.998;56.184;2023-05-27T04:34:10;32.92;;;12.68;;
61112;SDS011;47184;57.998;56.184;2023-05-27T04:36:37;51.83;;;14.32;;
61112;SDS011;47184;57.998;56.184;2023-05-27T04:39:08;69.57;;;14.25;;
61112;SDS011;47184;57.998;56.184;2023-05-27T04:41:38;58.47;;;14.50;;
61112;SDS011;47184;57.998;56.184;2023-05-27T04:44:07;56.33;;;14.05;;
61112;SDS011;47184;57.998;56.184;2023-05-27T04:46:39;66.10;;;14.57;;
61112;SDS011;47184;57.998;56.184;2023-05-27T04:49:06;42.28;;;13.65;;
61112;SDS011;47184;57.998;56.184;2023-05-27T04:51:32;45.58;;;12.52;;
61112;SDS011;47184;57.998;56.184;2023-05-27T04:54:01;37.28;;;12.43;;
61112;SDS011;47184;57.998;56.184;2023-05-27T04:56:28;49.28;;;13.27;;
61112;SDS011;47184;57.998;56.184;2023-05-27T04:58:57;34.47;;;13.93;;
61112;SDS011;47184;57.998;56.184;2023-05-27T05:01:29;37.58;;;13.50;;
61112;SDS011;47184;57.998;56.184;2023-05-27T05:04:12;41.50;;;13.25;;
61112;SDS011;47184;57.998;56.184;2023-05-27T05:06:59;49.05;;;13.57;;
61112;SDS011;47184;57.998;56.184;2023-05-27T05:09:28;56.40;;;14.27;;
61112;SDS011;47184;57.998;56.184;2023-05-27T05:11:59;50.10;;;13.50;;
61112;SDS011;47184;57.998;56.184;2023-05-27T05:14:25;35.95;;;11.20;;
61112;SDS011;47184;57.998;56.184;2023-05-27T05:16:51;38.88;;;12.50;;
61112;SDS011;47184;57.998;56.184;2023-05-27T05:19:18;39.67;;;12.80;;
61112;SDS011;47184;57.998;56.184;2023-05-27T05:21:45;42.35;;;13.98;;
61112;SDS011;47184;57.998;56.184;2023-05-27T05:24:13;40.83;;;13.68;;
61112;SDS011;47184;57.998;56.184;2023-05-27T05:26:40;44.05;;;13.00;;
61112;SDS011;47184;57.998;56.184;2023-05-27T05:29:08;22.65;;;8.10;;
61112;SDS011;47184;57.998;56.184;2023-05-27T05:31:34;10.18;;;5.38;;
61112;SDS011;47184;57.998;56.184;2023-05-27T05:34:01;16.58;;;9.05;;
61112;SDS011;47184;57.998;56.184;2023-05-27T05:36:30;31.83;;;10.77;;
61112;SDS011;47184;57.998;56.184;2023-05-27T05:39:01;26.33;;;11.85;;
61112;SDS011;47184;57.998;56.184;2023-05-27T05:41:29;34.78;;;12.88;;
61112;SDS011;47184;57.998;56.184;2023-05-27T05:43:55;33.00;;;13.65;;
61112;SDS011;47184;57.998;56.184;2023-05-27T05:46:22;25.33;;;12.10;;
61112;SDS011;47184;57.998;56.184;2023-05-27T05:48:51;26.25;;;10.95;;
61112;SDS011;47184;57.998;56.184;2023-05-27T05:51:24;28.13;;;11.50;;
61112;SDS011;47184;57.998;56.184;2023-05-27T05:53:55;23.27;;;10.95;;
61112;SDS011;47184;57.998;56.184;2023-05-27T05:56:22;33.63;;;12.95;;
61112;SDS011;47184;57.998;56.184;2023-05-27T05:58:48;26.60;;;12.10;;
61112;SDS011;47184;57.998;56.184;2023-05-27T06:01:15;28.73;;;12.25;;
61112;SDS011;47184;57.998;56.184;2023-05-27T06:03:42;22.60;;;9.40;;
61112;SDS011;47184;57.998;56.184;2023-05-27T06:06:16;21.50;;;7.20;;
61112;SDS011;47184;57.998;56.184;2023-05-27T06:09:11;31.25;;;11.90;;
61112;SDS011;47184;57.998;56.184;2023-05-27T06:11:37;11.35;;;5.88;;
61112;SDS011;47184;57.998;56.184;2023-05-27T06:14:04;25.02;;;9.40;;
61112;SDS011;47184;57.998;56.184;2023-05-27T06:16:30;19.35;;;10.63;;
61112;SDS011;47184;57.998;56.184;2023-05-27T06:18:56;30.00;;;9.25;;
61112;SDS011;47184;57.998;56.184;2023-05-27T06:21:22;20.20;;;10.18;;
61112;SDS011;47184;57.998;56.184;2023-05-27T06:24:11;27.63;;;11.30;;
61112;SDS011;47184;57.998;56.184;2023-05-27T06:26:43;25.63;;;10.65;;
61112;SDS011;47184;57.998;56.184;2023-05-27T06:29:10;19.50;;;7.72;;
61112;SDS011;47184;57.998;56.184;2023-05-27T06:31:37;17.33;;;8.18;;
61112;SDS011;47184;57.998;56.184;2023-05-27T06:34:03;32.55;;;8.40;;
61112;SDS011;47184;57.998;56.184;2023-05-27T06:36:31;16.38;;;5.55;;
61112;SDS011;47184;57.998;56.184;2023-05-27T06:38:57;17.35;;;7.45;;
61112;SDS011;47184;57.998;56.184;2023-05-27T06:41:24;32.40;;;9.25;;
61112;SDS011;47184;57.998;56.184;2023-05-27T06:44:10;6.38;;;4.32;;
61112;SDS011;47184;57.998;56.184;2023-05-27T06:46:52;25.70;;;8.20;;
61112;SDS011;47184;57.998;56.184;2023-05-27T06:49:31;20.50;;;7.82;;
61112;SDS011;47184;57.998;56.184;2023-05-27T06:52:00;23.25;;;9.15;;
61112;SDS011;47184;57.998;56.184;2023-05-27T06:54:28;16.73;;;8.95;;
61112;SDS011;47184;57.998;56.184;2023-05-27T06:57:07;9.90;;;5.60;;
61112;SDS011;47184;57.998;56.184;2023-05-27T06:59:49;8.60;;;5.28;;
61112;SDS011;47184;57.998;56.184;2023-05-27T07:02:16;10.15;;;6.28;;
61112;SDS011;47184;57.998;56.184;2023-05-27T07:04:42;11.80;;;5.35;;
61112;SDS011;47184;57.998;56.184;2023-05-27T07:07:09;9.55;;;6.32;;
61112;SDS011;47184;57.998;56.184;2023-05-27T07:09:36;13.43;;;5.75;;
61112;SDS011;47184;57.998;56.184;2023-05-27T07:12:03;10.73;;;5.43;;
61112;SDS011;47184;57.998;56.184;2023-05-27T07:14:57;7.70;;;4.45;;
61112;SDS011;47184;57.998;56.184;2023-05-27T07:17:26;12.50;;;5.75;;
61112;SDS011;47184;57.998;56.184;2023-05-27T07:19:52;21.10;;;6.07;;
61112;SDS011;47184;57.998;56.184;2023-05-27T07:22:20;13.07;;;5.43;;
61112;SDS011;47184;57.998;56.184;2023-05-27T07:24:46;7.22;;;4.80;;
61112;SDS011;47184;57.998;56.184;2023-05-27T07:27:12;10.98;;;6.18;;
61112;SDS011;47184;57.998;56.184;2023-05-27T07:29:44;21.33;;;8.35;;
61112;SDS011;47184;57.998;56.184;2023-05-27T07:32:13;20.05;;;5.78;;
61112;SDS011;47184;57.998;56.184;2023-05-27T07:34:39;21.55;;;5.65;;
61112;SDS011;47184;57.998;56.184;2023-05-27T07:37:05;12.25;;;6.53;;
61112;SDS011;47184;57.998;56.184;2023-05-27T07:39:31;9.13;;;4.60;;
61112;SDS011;47184;57.998;56.184;2023-05-27T07:41:58;12.77;;;5.55;;
61112;SDS011;47184;57.998;56.184;2023-05-27T07:44:27;9.38;;;4.88;;
61112;SDS011;47184;57.998;56.184;2023-05-27T07:46:54;15.98;;;6.25;;
61112;SDS011;47184;57.998;56.184;2023-05-27T07:49:20;14.32;;;7.72;;
61112;SDS011;47184;57.998;56.184;2023-05-27T07:52:09;30.27;;;7.32;;
61112;SDS011;47184;57.998;56.184;2023-05-27T07:54:35;17.25;;;7.78;;
61112;SDS011;47184;57.998;56.184;2023-05-27T07:57:02;21.67;;;7.15;;
61112;SDS011;47184;57.998;56.184;2023-05-27T07:59:28;17.40;;;6.00;;
61112;SDS011;47184;57.998;56.184;2023-05-27T08:01:56;11.13;;;5.35;;
61112;SDS011;47184;57.998;56.184;2023-05-27T08:04:23;14.00;;;7.78;;
61112;SDS011;47184;57.998;56.184;2023-05-27T08:07:05;17.98;;;7.30;;
61112;SDS011;47184;57.998;56.184;2023-05-27T08:09:51;27.90;;;5.35;;
61112;SDS011;47184;57.998;56.184;2023-05-27T08:12:45;9.43;;;5.82;;
61112;SDS011;47184;57.998;56.184;2023-05-27T08:15:21;12.45;;;6.55;;
61112;SDS011;47184;57.998;56.184;2023-05-27T08:18:00;28.80;;;7.22;;
61112;SDS011;47184;57.998;56.184;2023-05-27T08:20:48;9.43;;;5.63;;
61112;SDS011;47184;57.998;56.184;2023-05-27T08:23:33;24.90;;;7.82;;
61112;SDS011;47184;57.998;56.184;2023-05-27T08:26:15;17.05;;;9.43;;
61112;SDS011;47184;57.998;56.184;2023-05-27T08:29:12;16.50;;;7.97;;
61112;SDS011;47184;57.998;56.184;2023-05-27T08:31:58;19.73;;;8.13;;
61112;SDS011;47184;57.998;56.184;2023-05-27T08:34:25;19.15;;;7.55;;
61112;SDS011;47184;57.998;56.184;2023-05-27T08:36:53;24.73;;;7.30;;
61112;SDS011;47184;57.998;56.184;2023-05-27T08:39:20;12.30;;;6.50;;
61112;SDS011;47184;57.998;56.184;2023-05-27T08:41:59;15.45;;;7.50;;
61112;SDS011;47184;57.998;56.184;2023-05-27T08:44:28;21.20;;;8.02;;
61112;SDS011;47184;57.998;56.184;2023-05-27T08:47:00;19.48;;;5.47;;
61112;SDS011;47184;57.998;56.184;2023-05-27T08:49:29;9.93;;;5.65;;
61112;SDS011;47184;57.998;56.184;2023-05-27T08:51:55;16.25;;;6.20;;
61112;SDS011;47184;57.998;56.184;2023-05-27T08:54:26;26.88;;;8.70;;
61112;SDS011;47184;57.998;56.184;2023-05-27T08:56:57;25.58;;;8.57;;
61112;SDS011;47184;57.998;56.184;2023-05-27T08:59:26;17.45;;;8.80;;
61112;SDS011;47184;57.998;56.184;2023-05-27T09:01:54;14.10;;;7.43;;
61112;SDS011;47184;57.998;56.184;2023-05-27T09:04:22;15.13;;;7.75;;
61112;SDS011;47184;57.998;56.184;2023-05-27T09:06:48;18.42;;;8.65;;
61112;SDS011;47184;57.998;56.184;2023-05-27T09:09:14;21.65;;;9.18;;
61112;SDS011;47184;57.998;56.184;2023-05-27T09:11:44;17.60;;;8.10;;
61112;SDS011;47184;57.998;56.184;2023-05-27T09:14:19;17.45;;;5.47;;
61112;SDS011;47184;57.998;56.184;2023-05-27T09:16:49;8.32;;;5.05;;
61112;SDS011;47184;57.998;56.184;2023-05-27T09:19:16;9.68;;;5.88;;
61112;SDS011;47184;57.998;56.184;2023-05-27T09:21:43;7.13;;;4.57;;
61112;SDS011;47184;57.998;56.184;2023-05-27T09:24:10;16.63;;;7.88;;
61112;SDS011;47184;57.998;56.184;2023-05-27T09:26:37;12.27;;;6.43;;
61112;SDS011;47184;57.998;56.184;2023-05-27T09:29:07;13.80;;;5.95;;
61112;SDS011;47184;57.998;56.184;2023-05-27T09:31:42;25.02;;;7.65;;
61112;SDS011;47184;57.998;56.184;2023-05-27T09:34:11;17.80;;;7.00;;
61112;SDS011;47184;57.998;56.184;2023-05-27T09:36:41;18.13;;;7.80;;
61112;SDS011;47184;57.998;56.184;2023-05-27T09:39:15;9.73;;;5.63;;
61112;SDS011;47184;57.998;56.184;2023-05-27T09:41:42;17.30;;;7.32;;
61112;SDS011;47184;57.998;56.184;2023-05-27T09:44:08;22.45;;;7.75;;
61112;SDS011;47184;57.998;56.184;2023-05-27T09:46:35;23.60;;;8.20;;
61112;SDS011;47184;57.998;56.184;2023-05-27T09:49:02;14.43;;;5.32;;
61112;SDS011;47184;57.998;56.184;2023-05-27T09:51:31;14.93;;;6.68;;
61112;SDS011;47184;57.998;56.184;2023-05-27T09:53:58;14.65;;;5.68;;
61112;SDS011;47184;57.998;56.184;2023-05-27T09:56:25;9.63;;;4.50;;
61112;SDS011;47184;57.998;56.184;2023-05-27T09:58:55;7.20;;;4.72;;
61112;SDS011;47184;57.998;56.184;2023-05-27T10:01:26;33.10;;;6.10;;
61112;SDS011;47184;57.998;56.184;2023-05-27T10:03:54;27.42;;;5.55;;
61112;SDS011;47184;57.998;56.184;2023-05-27T10:06:24;28.98;;;6.25;;
61112;SDS011;47184;57.998;56.184;2023-05-27T10:08:51;10.80;;;4.82;;
61112;SDS011;47184;57.998;56.184;2023-05-27T10:11:27;8.50;;;4.87;;
61112;SDS011;47184;57.998;56.184;2023-05-27T10:13:57;19.52;;;6.95;;
61112;SDS011;47184;57.998;56.184;2023-05-27T10:16:26;36.63;;;7.80;;
61112;SDS011;47184;57.998;56.184;2023-05-27T10:18:57;29.38;;;8.20;;
61112;SDS011;47184;57.998;56.184;2023-05-27T10:21:27;28.00;;;7.18;;
61112;SDS011;47184;57.998;56.184;2023-05-27T10:23:57;19.80;;;7.40;;
61112;SDS011;47184;57.998;56.184;2023-05-27T10:26:32;15.63;;;5.25;;
61112;SDS011;47184;57.998;56.184;2023-05-27T10:29:09;24.65;;;9.50;;
61112;SDS011;47184;57.998;56.184;2023-05-27T10:31:47;33.60;;;7.07;;
61112;SDS011;47184;57.998;56.184;2023-05-27T10:34:14;22.70;;;8.15;;
61112;SDS011;47184;57.998;56.184;2023-05-27T10:36:41;30.70;;;8.02;;
61112;SDS011;47184;57.998;56.184;2023-05-27T10:39:13;17.75;;;6.35;;
61112;SDS011;47184;57.998;56.184;2023-05-27T10:41:41;7.78;;;3.78;;
61112;SDS011;47184;57.998;56.184;2023-05-27T10:47:02;20.20;;;5.55;;
61112;SDS011;47184;57.998;56.184;2023-05-27T10:49:46;11.15;;;5.10;;
61112;SDS011;47184;57.998;56.184;2023-05-27T10:52:14;12.10;;;4.82;;
61112;SDS011;47184;57.998;56.184;2023-05-27T10:54:42;13.77;;;5.40;;
61112;SDS011;47184;57.998;56.184;2023-05-27T10:57:11;16.00;;;5.35;;
61112;SDS011;47184;57.998;56.184;2023-05-27T11:02:15;25.95;;;7.57;;
61112;SDS011;47184;57.998;56.184;2023-05-27T11:04:42;25.10;;;6.88;;
61112;SDS011;47184;57.998;56.184;2023-05-27T11:07:08;27.60;;;7.10;;
61112;SDS011;47184;57.998;56.184;2023-05-27T11:09:47;15.98;;;6.07;;
61112;SDS011;47184;57.998;56.184;2023-05-27T11:12:18;7.60;;;4.28;;
61112;SDS011;47184;57.998;56.184;2023-05-27T11:14:48;14.77;;;5.65;;
61112;SDS011;47184;57.998;56.184;2023-05-27T11:17:18;25.40;;;8.30;;
61112;SDS011;47184;57.998;56.184;2023-05-27T11:19:45;26.88;;;8.27;;
61112;SDS011;47184;57.998;56.184;2023-05-27T11:22:12;15.93;;;7.00;;
61112;SDS011;47184;57.998;56.184;2023-05-27T11:24:40;11.35;;;4.93;;
61112;SDS011;47184;57.998;56.184;2023-05-27T11:27:10;25.02;;;7.35;;
61112;SDS011;47184;57.998;56.184;2023-05-27T11:29:37;23.00;;;6.80;;
61112;SDS011;47184;57.998;56.184;2023-05-27T11:32:04;14.73;;;6.22;;
61112;SDS011;47184;57.998;56.184;2023-05-27T11:34:35;29.88;;;9.20;;
61112;SDS011;47184;57.998;56.184;2023-05-27T11:37:02;10.48;;;4.65;;
61112;SDS011;47184;57.998;56.184;2023-05-27T11:39:30;9.65;;;3.70;;
61112;SDS011;47184;57.998;56.184;2023-05-27T11:41:57;12.25;;;4.55;;
61112;SDS011;47184;57.998;56.184;2023-05-27T11:44:25;12.23;;;5.95;;
61112;SDS011;47184;57.998;56.184;2023-05-27T11:46:52;36.92;;;7.68;;
61112;SDS011;47184;57.998;56.184;2023-05-27T11:49:25;19.65;;;5.03;;
61112;SDS011;47184;57.998;56.184;2023-05-27T11:51:56;16.95;;;5.43;;
61112;SDS011;47184;57.998;56.184;2023-05-27T11:54:27;15.43;;;4.32;;
61112;SDS011;47184;57.998;56.184;2023-05-27T11:56:59;6.23;;;2.60;;
61112;SDS011;47184;57.998;56.184;2023-05-27T11:59:29;32.38;;;7.38;;
61112;SDS011;47184;57.998;56.184;2023-05-27T12:01:55;23.48;;;7.00;;
61112;SDS011;47184;57.998;56.184;2023-05-27T12:04:21;40.75;;;7.70;;
61112;SDS011;47184;57.998;56.184;2023-05-27T12:06:47;17.13;;;7.47;;
61112;SDS011;47184;57.998;56.184;2023-05-27T12:09:17;27.45;;;4.82;;
61112;SDS011;47184;57.998;56.184;2023-05-27T12:11:43;24.52;;;5.40;;
61112;SDS011;47184;57.998;56.184;2023-05-27T12:14:09;22.60;;;4.65;;
61112;SDS011;47184;57.998;56.184;2023-05-27T12:16:35;30.90;;;7.68;;
61112;SDS011;47184;57.998;56.184;2023-05-27T12:19:01;13.43;;;5.18;;
61112;SDS011;47184;57.998;56.184;2023-05-27T12:21:27;21.77;;;3.75;;
61112;SDS011;47184;57.998;56.184;2023-05-27T12:23:54;22.40;;;4.35;;
61112;SDS011;47184;57.998;56.184;2023-05-27T12:26:21;28.10;;;6.95;;
61112;SDS011;47184;57.998;56.184;2023-05-27T12:28:47;16.25;;;4.85;;
61112;SDS011;47184;57.998;56.184;2023-05-27T12:31:14;16.15;;;4.63;;
61112;SDS011;47184;57.998;56.184;2023-05-27T12:33:40;10.18;;;3.58;;
61112;SDS011;47184;57.998;56.184;2023-05-27T12:36:07;14.02;;;3.42;;
61112;SDS011;47184;57.998;56.184;2023-05-27T12:38:33;17.77;;;4.40;;
61112;SDS011;47184;57.998;56.184;2023-05-27T12:40:59;14.40;;;4.80;;
61112;SDS011;47184;57.998;56.184;2023-05-27T12:43:29;11.60;;;3.60;;
61112;SDS011;47184;57.998;56.184;2023-05-27T12:45:55;14.30;;;3.67;;
61112;SDS011;47184;57.998;56.184;2023-05-27T12:48:21;13.43;;;4.00;;
61112;SDS011;47184;57.998;56.184;2023-05-27T12:50:49;15.77;;;3.60;;
61112;SDS011;47184;57.998;56.184;2023-05-27T12:53:15;11.43;;;2.13;;
61112;SDS011;47184;57.998;56.184;2023-05-27T12:58:37;15.05;;;5.07;;
61112;SDS011;47184;57.998;56.184;2023-05-27T13:01:03;12.35;;;2.63;;
61112;SDS011;47184;57.998;56.184;2023-05-27T13:03:29;16.17;;;4.85;;
61112;SDS011;47184;57.998;56.184;2023-05-27T13:05:55;27.98;;;5.85;;
61112;SDS011;47184;57.998;56.184;2023-05-27T13:08:23;14.63;;;5.80;;
61112;SDS011;47184;57.998;56.184;2023-05-27T13:10:50;28.83;;;6.68;;
61112;SDS011;47184;57.998;56.184;2023-05-27T13:13:16;22.95;;;6.72;;
61112;SDS011;47184;57.998;56.184;2023-05-27T13:15:42;18.85;;;6.05;;
61112;SDS011;47184;57.998;56.184;2023-05-27T13:18:11;12.95;;;5.97;;
61112;SDS011;47184;57.998;56.184;2023-05-27T13:20:40;21.83;;;5.43;;
61112;SDS011;47184;57.998;56.184;2023-05-27T13:23:08;25.45;;;5.43;;
61112;SDS011;47184;57.998;56.184;2023-05-27T13:25:34;19.55;;;7.32;;
61112;SDS011;47184;57.998;56.184;2023-05-27T13:28:00;25.83;;;8.85;;
61112;SDS011;47184;57.998;56.184;2023-05-27T13:30:27;31.58;;;9.43;;
61112;SDS011;47184;57.998;56.184;2023-05-27T13:32:54;16.90;;;6.15;;
61112;SDS011;47184;57.998;56.184;2023-05-27T13:35:25;13.48;;;5.22;;
61112;SDS011;47184;57.998;56.184;2023-05-27T13:37:53;27.15;;;6.93;;
61112;SDS011;47184;57.998;56.184;2023-05-27T13:40:20;33.53;;;7.80;;
61112;SDS011;47184;57.998;56.184;2023-05-27T13:42:46;30.30;;;7.60;;
61112;SDS011;47184;57.998;56.184;2023-05-27T13:45:12;24.85;;;7.70;;
61112;SDS011;47184;57.998;56.184;2023-05-27T13:47:41;12.35;;;5.20;;
61112;SDS011;47184;57.998;56.184;2023-05-27T13:50:12;17.15;;;5.90;;
61112;SDS011;47184;57.998;56.184;2023-05-27T13:52:38;27.38;;;8.23;;
61112;SDS011;47184;57.998;56.184;2023-05-27T13:55:05;15.68;;;6.75;;
61112;SDS011;47184;57.998;56.184;2023-05-27T13:57:32;15.75;;;6.50;;
61112;SDS011;47184;57.998;56.184;2023-05-27T13:59:58;21.67;;;7.50;;
61112;SDS011;47184;57.998;56.184;2023-05-27T14:02:46;24.65;;;7.00;;
61112;SDS011;47184;57.998;56.184;2023-05-27T14:05:13;22.08;;;6.70;;
61112;SDS011;47184;57.998;56.184;2023-05-27T14:07:42;26.70;;;7.88;;
61112;SDS011;47184;57.998;56.184;2023-05-27T14:10:12;15.50;;;5.68;;
61112;SDS011;47184;57.998;56.184;2023-05-27T14:12:39;22.83;;;6.35;;
61112;SDS011;47184;57.998;56.184;2023-05-27T14:15:15;22.33;;;5.82;;
61112;SDS011;47184;57.998;56.184;2023-05-27T14:17:45;16.45;;;7.25;;
61112;SDS011;47184;57.998;56.184;2023-05-27T14:20:19;21.75;;;7.63;;
61112;SDS011;47184;57.998;56.184;2023-05-27T14:22:47;30.27;;;7.75;;
61112;SDS011;47184;57.998;56.184;2023-05-27T14:25:16;24.98;;;7.20;;
61112;SDS011;47184;57.998;56.184;2023-05-27T14:27:50;24.58;;;8.60;;
61112;SDS011;47184;57.998;56.184;2023-05-27T14:30:17;15.63;;;6.75;;
61112;SDS011;47184;57.998;56.184;2023-05-27T14:32:44;25.83;;;11.23;;
61112;SDS011;47184;57.998;56.184;2023-05-27T14:35:10;20.75;;;7.65;;
61112;SDS011;47184;57.998;56.184;2023-05-27T14:37:37;18.35;;;7.20;;
61112;SDS011;47184;57.998;56.184;2023-05-27T14:40:04;21.90;;;7.53;;
61112;SDS011;47184;57.998;56.184;2023-05-27T14:42:38;21.60;;;6.88;;
61112;SDS011;47184;57.998;56.184;2023-05-27T14:45:04;19.00;;;6.95;;
61112;SDS011;47184;57.998;56.184;2023-05-27T14:47:31;17.63;;;7.38;;